TimeCDT,TemperatureF,Dew PointF,Humidity,Sea Level PressureIn,VisibilityMPH,Wind Direction,Wind SpeedMPH,Gust SpeedMPH,PrecipitationIn,Events,Conditions,WindDirDegrees,DateUTC
12:53 AM,63.0,55.9,78,29.89,10.0,South,4.6,-,N/A,,Clear,170,2013-04-30 05:53:00
1:53 AM,62.1,55.9,80,29.88,10.0,South,3.5,-,N/A,,Clear,190,2013-04-30 06:53:00
2:53 AM,55.0,53.1,93,29.88,10.0,Calm,Calm,-,N/A,,Clear,0,2013-04-30 07:53:00
3:53 AM,55.9,53.1,90,29.88,10.0,Calm,Calm,-,N/A,,Clear,0,2013-04-30 08:53:00
4:53 AM,54.0,52.0,93,29.88,10.0,Calm,Calm,-,N/A,,Clear,0,2013-04-30 09:53:00
5:53 AM,55.0,52.0,89,29.89,10.0,Calm,Calm,-,N/A,,Clear,0,2013-04-30 10:53:00
6:53 AM,55.0,53.1,93,29.91,10.0,Calm,Calm,-,N/A,,Clear,0,2013-04-30 11:53:00
7:53 AM,63.0,57.0,81,29.93,10.0,Calm,Calm,-,N/A,,Clear,0,2013-04-30 12:53:00
8:53 AM,66.0,57.0,73,29.94,10.0,SE,3.5,-,N/A,,Clear,130,2013-04-30 13:53:00
9:53 AM,71.1,57.9,63,29.95,10.0,Calm,Calm,-,N/A,,Clear,0,2013-04-30 14:53:00
10:53 AM,75.0,60.1,60,29.95,10.0,SSE,6.9,-,N/A,,Clear,160,2013-04-30 15:53:00
11:53 AM,75.9,61.0,60,29.94,10.0,SSE,4.6,-,N/A,,Clear,160,2013-04-30 16:53:00
12:53 PM,79.0,57.9,48,29.93,10.0,SSE,11.5,-,N/A,,Clear,160,2013-04-30 17:53:00
1:53 PM,80.1,60.1,50,29.92,10.0,SSW,8.1,-,N/A,,Clear,200,2013-04-30 18:53:00
2:53 PM,81.0,57.9,45,29.91,10.0,South,11.5,-,N/A,,Clear,170,2013-04-30 19:53:00
3:53 PM,82.0,55.0,39,29.88,10.0,SE,11.5,-,N/A,,Partly Cloudy,130,2013-04-30 20:53:00
4:53 PM,82.0,52.0,35,29.89,10.0,SE,6.9,-,N/A,,Clear,130,2013-04-30 21:53:00
5:53 PM,81.0,54.0,39,29.88,10.0,SE,11.5,-,N/A,,Clear,130,2013-04-30 22:53:00
6:53 PM,80.1,57.0,45,29.89,10.0,SE,5.8,-,N/A,,Clear,130,2013-04-30 23:53:00
7:53 PM,70.0,59.0,68,29.91,10.0,ESE,4.6,-,N/A,,Clear,110,2013-05-01 00:53:00
8:53 PM,64.0,57.9,80,29.91,10.0,East,3.5,-,N/A,,Clear,80,2013-05-01 01:53:00
9:53 PM,68.0,57.0,68,29.93,10.0,East,3.5,-,N/A,,Scattered Clouds,100,2013-05-01 02:53:00
10:53 PM,61.0,55.9,83,29.94,10.0,Calm,Calm,-,N/A,,Clear,0,2013-05-01 03:53:00
11:53 PM,59.0,55.4,88,29.94,10.0,Calm,Calm,-,N/A,,Clear,0,2013-05-01 04:53:00